Aalborg, Denmark
Current Conditions -  °F | °C
As of 7:50 PM on Tuesday 27 Jan 2015 (Local Time) from EKYT Reporting Station
Clear Clear  
Wind Chill: 30°   Ceiling: Unl
Heat Index: 37°   Visibility: 6mi
Dew Point: 37°   Wind: 12mph
Humidity: 100%   Direction: 270°W
Pressure: 29.88"   Gusts: NA
Location:  57.05°N, 9.92°E
Report Text: EKYT 271850Z 27010KT CAVOK 03/03 Q1012 R26/CLRD//
Loading
Personal Weather Stations






























Interactive Weather Map New forecast layout! Learn more

10-Day Weather Forecast

Advertisements
Track Severe Weather on mobile